sensor_id;sensor_type;location;lat;lon;timestamp;P1;durP1;ratioP1;P2;durP2;ratioP2
45842;SDS011;31563;51.744;8.252;2023-07-13T00:01:09;5.72;;;1.23;;
45842;SDS011;31563;51.744;8.252;2023-07-13T00:03:37;3.53;;;1.27;;
45842;SDS011;31563;51.744;8.252;2023-07-13T00:06:07;3.63;;;1.20;;
45842;SDS011;31563;51.744;8.252;2023-07-13T00:08:36;4.15;;;1.25;;
45842;SDS011;31563;51.744;8.252;2023-07-13T00:11:06;2.57;;;1.03;;
45842;SDS011;31563;51.744;8.252;2023-07-13T00:13:37;5.25;;;1.20;;
45842;SDS011;31563;51.744;8.252;2023-07-13T00:16:06;2.33;;;1.00;;
45842;SDS011;31563;51.744;8.252;2023-07-13T00:18:35;4.70;;;1.10;;
45842;SDS011;31563;51.744;8.252;2023-07-13T00:21:04;2.95;;;1.23;;
45842;SDS011;31563;51.744;8.252;2023-07-13T00:23:33;3.13;;;1.13;;
45842;SDS011;31563;51.744;8.252;2023-07-13T00:26:02;3.47;;;0.77;;
45842;SDS011;31563;51.744;8.252;2023-07-13T00:28:33;2.95;;;1.17;;
45842;SDS011;31563;51.744;8.252;2023-07-13T00:31:01;3.35;;;0.90;;
45842;SDS011;31563;51.744;8.252;2023-07-13T00:33:33;3.08;;;1.20;;
45842;SDS011;31563;51.744;8.252;2023-07-13T00:36:01;2.88;;;0.80;;
45842;SDS011;31563;51.744;8.252;2023-07-13T00:38:30;4.90;;;1.00;;
45842;SDS011;31563;51.744;8.252;2023-07-13T00:40:58;2.70;;;0.90;;
45842;SDS011;31563;51.744;8.252;2023-07-13T00:43:27;2.30;;;0.82;;
45842;SDS011;31563;51.744;8.252;2023-07-13T00:46:14;2.63;;;0.70;;
45842;SDS011;31563;51.744;8.252;2023-07-13T00:48:46;2.67;;;0.77;;
45842;SDS011;31563;51.744;8.252;2023-07-13T00:51:17;3.65;;;0.90;;
45842;SDS011;31563;51.744;8.252;2023-07-13T00:53:52;3.60;;;0.70;;
45842;SDS011;31563;51.744;8.252;2023-07-13T00:56:21;2.17;;;0.80;;
45842;SDS011;31563;51.744;8.252;2023-07-13T00:58:50;2.50;;;0.90;;
45842;SDS011;31563;51.744;8.252;2023-07-13T01:01:20;2.15;;;0.70;;
45842;SDS011;31563;51.744;8.252;2023-07-13T01:03:48;2.00;;;0.70;;
45842;SDS011;31563;51.744;8.252;2023-07-13T01:06:16;4.15;;;1.00;;
45842;SDS011;31563;51.744;8.252;2023-07-13T01:08:45;1.42;;;0.60;;
45842;SDS011;31563;51.744;8.252;2023-07-13T01:11:13;3.42;;;0.90;;
45842;SDS011;31563;51.744;8.252;2023-07-13T01:13:46;2.28;;;0.88;;
45842;SDS011;31563;51.744;8.252;2023-07-13T01:16:17;2.15;;;0.80;;
45842;SDS011;31563;51.744;8.252;2023-07-13T01:18:51;1.67;;;0.63;;
45842;SDS011;31563;51.744;8.252;2023-07-13T01:21:20;3.22;;;0.90;;
45842;SDS011;31563;51.744;8.252;2023-07-13T01:23:48;4.05;;;0.93;;
45842;SDS011;31563;51.744;8.252;2023-07-13T01:26:16;4.32;;;0.75;;
45842;SDS011;31563;51.744;8.252;2023-07-13T01:28:45;2.80;;;0.65;;
45842;SDS011;31563;51.744;8.252;2023-07-13T01:31:13;2.05;;;0.70;;
45842;SDS011;31563;51.744;8.252;2023-07-13T01:33:41;1.77;;;0.80;;
45842;SDS011;31563;51.744;8.252;2023-07-13T01:36:10;1.98;;;0.80;;
45842;SDS011;31563;51.744;8.252;2023-07-13T01:38:40;2.67;;;0.93;;
45842;SDS011;31563;51.744;8.252;2023-07-13T01:41:10;2.30;;;0.85;;
45842;SDS011;31563;51.744;8.252;2023-07-13T01:43:38;2.88;;;0.73;;
45842;SDS011;31563;51.744;8.252;2023-07-13T01:46:06;3.78;;;1.00;;
45842;SDS011;31563;51.744;8.252;2023-07-13T01:48:48;1.92;;;0.90;;
45842;SDS011;31563;51.744;8.252;2023-07-13T01:51:17;3.15;;;1.02;;
45842;SDS011;31563;51.744;8.252;2023-07-13T01:53:49;1.92;;;0.85;;
45842;SDS011;31563;51.744;8.252;2023-07-13T01:58:45;1.90;;;0.82;;
45842;SDS011;31563;51.744;8.252;2023-07-13T02:01:14;1.75;;;0.90;;
45842;SDS011;31563;51.744;8.252;2023-07-13T02:03:42;2.35;;;0.80;;
45842;SDS011;31563;51.744;8.252;2023-07-13T02:06:10;1.75;;;0.80;;
45842;SDS011;31563;51.744;8.252;2023-07-13T02:08:40;1.85;;;0.68;;
45842;SDS011;31563;51.744;8.252;2023-07-13T02:11:10;1.50;;;0.70;;
45842;SDS011;31563;51.744;8.252;2023-07-13T02:13:39;1.30;;;0.60;;
45842;SDS011;31563;51.744;8.252;2023-07-13T02:16:07;1.70;;;1.00;;
45842;SDS011;31563;51.744;8.252;2023-07-13T02:18:35;2.53;;;0.80;;
45842;SDS011;31563;51.744;8.252;2023-07-13T02:21:04;2.05;;;0.80;;
45842;SDS011;31563;51.744;8.252;2023-07-13T02:23:32;1.75;;;0.73;;
45842;SDS011;31563;51.744;8.252;2023-07-13T02:26:01;1.58;;;0.75;;
45842;SDS011;31563;51.744;8.252;2023-07-13T02:28:32;1.58;;;0.70;;
45842;SDS011;31563;51.744;8.252;2023-07-13T02:33:32;1.65;;;0.80;;
45842;SDS011;31563;51.744;8.252;2023-07-13T02:36:00;3.22;;;1.00;;
45842;SDS011;31563;51.744;8.252;2023-07-13T02:38:28;2.22;;;0.85;;
45842;SDS011;31563;51.744;8.252;2023-07-13T02:40:56;1.92;;;0.70;;
45842;SDS011;31563;51.744;8.252;2023-07-13T02:43:24;1.20;;;0.77;;
45842;SDS011;31563;51.744;8.252;2023-07-13T02:45:54;1.73;;;0.73;;
45842;SDS011;31563;51.744;8.252;2023-07-13T02:48:22;1.83;;;0.90;;
45842;SDS011;31563;51.744;8.252;2023-07-13T02:50:50;0.88;;;0.60;;
45842;SDS011;31563;51.744;8.252;2023-07-13T02:53:19;1.40;;;0.75;;
45842;SDS011;31563;51.744;8.252;2023-07-13T02:55:47;1.15;;;0.70;;
45842;SDS011;31563;51.744;8.252;2023-07-13T02:58:15;3.13;;;0.70;;
45842;SDS011;31563;51.744;8.252;2023-07-13T03:00:44;2.05;;;0.80;;
45842;SDS011;31563;51.744;8.252;2023-07-13T03:03:14;1.52;;;0.55;;
45842;SDS011;31563;51.744;8.252;2023-07-13T03:05:43;2.17;;;0.80;;
45842;SDS011;31563;51.744;8.252;2023-07-13T03:08:17;1.48;;;0.77;;
45842;SDS011;31563;51.744;8.252;2023-07-13T03:10:45;2.88;;;0.77;;
45842;SDS011;31563;51.744;8.252;2023-07-13T03:13:13;1.67;;;0.93;;
45842;SDS011;31563;51.744;8.252;2023-07-13T03:15:41;1.25;;;0.85;;
45842;SDS011;31563;51.744;8.252;2023-07-13T03:18:09;3.13;;;0.80;;
45842;SDS011;31563;51.744;8.252;2023-07-13T03:20:39;1.40;;;0.70;;
45842;SDS011;31563;51.744;8.252;2023-07-13T03:23:07;2.33;;;0.90;;
45842;SDS011;31563;51.744;8.252;2023-07-13T03:25:35;1.58;;;0.77;;
45842;SDS011;31563;51.744;8.252;2023-07-13T03:28:03;2.03;;;0.70;;
45842;SDS011;31563;51.744;8.252;2023-07-13T03:30:32;1.33;;;0.80;;
45842;SDS011;31563;51.744;8.252;2023-07-13T03:33:00;2.10;;;0.80;;
45842;SDS011;31563;51.744;8.252;2023-07-13T03:35:28;0.85;;;0.50;;
45842;SDS011;31563;51.744;8.252;2023-07-13T03:37:58;1.35;;;0.80;;
45842;SDS011;31563;51.744;8.252;2023-07-13T03:40:27;1.58;;;0.70;;
45842;SDS011;31563;51.744;8.252;2023-07-13T03:42:55;1.83;;;0.87;;
45842;SDS011;31563;51.744;8.252;2023-07-13T03:45:23;2.20;;;0.85;;
45842;SDS011;31563;51.744;8.252;2023-07-13T03:47:52;1.48;;;0.80;;
45842;SDS011;31563;51.744;8.252;2023-07-13T03:50:20;2.22;;;0.50;;
45842;SDS011;31563;51.744;8.252;2023-07-13T03:52:48;1.33;;;0.80;;
45842;SDS011;31563;51.744;8.252;2023-07-13T03:55:18;2.47;;;0.70;;
45842;SDS011;31563;51.744;8.252;2023-07-13T03:57:46;1.60;;;0.68;;
45842;SDS011;31563;51.744;8.252;2023-07-13T04:00:15;2.00;;;0.90;;
45842;SDS011;31563;51.744;8.252;2023-07-13T04:02:43;1.65;;;0.73;;
45842;SDS011;31563;51.744;8.252;2023-07-13T04:05:13;1.33;;;0.60;;
45842;SDS011;31563;51.744;8.252;2023-07-13T04:07:42;1.60;;;0.70;;
45842;SDS011;31563;51.744;8.252;2023-07-13T04:10:10;0.90;;;0.70;;
45842;SDS011;31563;51.744;8.252;2023-07-13T04:12:39;1.55;;;0.60;;
45842;SDS011;31563;51.744;8.252;2023-07-13T04:15:08;1.25;;;0.80;;
45842;SDS011;31563;51.744;8.252;2023-07-13T04:17:36;3.00;;;1.00;;
45842;SDS011;31563;51.744;8.252;2023-07-13T04:20:05;3.60;;;0.90;;
45842;SDS011;31563;51.744;8.252;2023-07-13T04:22:34;2.00;;;0.93;;
45842;SDS011;31563;51.744;8.252;2023-07-13T04:25:02;2.58;;;0.82;;
45842;SDS011;31563;51.744;8.252;2023-07-13T04:27:31;3.72;;;0.80;;
45842;SDS011;31563;51.744;8.252;2023-07-13T04:30:01;2.53;;;0.82;;
45842;SDS011;31563;51.744;8.252;2023-07-13T04:32:29;2.00;;;0.95;;
45842;SDS011;31563;51.744;8.252;2023-07-13T04:34:58;2.80;;;0.70;;
45842;SDS011;31563;51.744;8.252;2023-07-13T04:37:26;2.28;;;0.63;;
45842;SDS011;31563;51.744;8.252;2023-07-13T04:39:55;1.88;;;0.82;;
45842;SDS011;31563;51.744;8.252;2023-07-13T04:42:23;1.45;;;0.75;;
45842;SDS011;31563;51.744;8.252;2023-07-13T04:44:52;2.47;;;0.85;;
45842;SDS011;31563;51.744;8.252;2023-07-13T04:47:21;2.38;;;0.73;;
45842;SDS011;31563;51.744;8.252;2023-07-13T04:52:17;3.45;;;1.10;;
45842;SDS011;31563;51.744;8.252;2023-07-13T04:54:46;4.07;;;0.80;;
45842;SDS011;31563;51.744;8.252;2023-07-13T04:57:14;4.57;;;1.30;;
45842;SDS011;31563;51.744;8.252;2023-07-13T04:59:42;4.55;;;1.10;;
45842;SDS011;31563;51.744;8.252;2023-07-13T05:02:10;7.57;;;1.30;;
45842;SDS011;31563;51.744;8.252;2023-07-13T05:04:40;5.13;;;1.10;;
45842;SDS011;31563;51.744;8.252;2023-07-13T05:07:08;5.18;;;1.00;;
45842;SDS011;31563;51.744;8.252;2023-07-13T05:09:36;5.20;;;1.00;;
45842;SDS011;31563;51.744;8.252;2023-07-13T05:12:06;3.97;;;0.93;;
45842;SDS011;31563;51.744;8.252;2023-07-13T05:17:04;3.05;;;0.98;;
45842;SDS011;31563;51.744;8.252;2023-07-13T05:19:32;3.92;;;1.08;;
45842;SDS011;31563;51.744;8.252;2023-07-13T05:22:02;4.82;;;1.02;;
45842;SDS011;31563;51.744;8.252;2023-07-13T05:24:30;5.00;;;1.10;;
45842;SDS011;31563;51.744;8.252;2023-07-13T05:26:59;3.40;;;0.95;;
45842;SDS011;31563;51.744;8.252;2023-07-13T05:29:27;4.90;;;1.20;;
45842;SDS011;31563;51.744;8.252;2023-07-13T05:31:55;4.20;;;1.00;;
45842;SDS011;31563;51.744;8.252;2023-07-13T05:34:23;3.47;;;0.88;;
45842;SDS011;31563;51.744;8.252;2023-07-13T05:36:51;3.72;;;1.00;;
45842;SDS011;31563;51.744;8.252;2023-07-13T05:39:21;5.70;;;1.48;;
45842;SDS011;31563;51.744;8.252;2023-07-13T05:44:17;6.82;;;1.33;;
45842;SDS011;31563;51.744;8.252;2023-07-13T05:46:45;5.22;;;1.40;;
45842;SDS011;31563;51.744;8.252;2023-07-13T05:49:14;4.38;;;1.00;;
45842;SDS011;31563;51.744;8.252;2023-07-13T05:51:42;4.13;;;1.00;;
45842;SDS011;31563;51.744;8.252;2023-07-13T05:54:10;4.10;;;0.85;;
45842;SDS011;31563;51.744;8.252;2023-07-13T05:56:39;2.83;;;0.80;;
45842;SDS011;31563;51.744;8.252;2023-07-13T05:59:08;5.07;;;1.10;;
45842;SDS011;31563;51.744;8.252;2023-07-13T06:01:36;3.78;;;1.10;;
45842;SDS011;31563;51.744;8.252;2023-07-13T06:04:04;5.53;;;1.42;;
45842;SDS011;31563;51.744;8.252;2023-07-13T06:06:32;3.95;;;0.90;;
45842;SDS011;31563;51.744;8.252;2023-07-13T06:09:01;5.15;;;0.98;;
45842;SDS011;31563;51.744;8.252;2023-07-13T06:11:29;7.50;;;1.50;;
45842;SDS011;31563;51.744;8.252;2023-07-13T06:13:58;4.32;;;1.42;;
45842;SDS011;31563;51.744;8.252;2023-07-13T06:16:26;3.42;;;1.42;;
45842;SDS011;31563;51.744;8.252;2023-07-13T06:18:55;3.85;;;1.02;;
45842;SDS011;31563;51.744;8.252;2023-07-13T06:21:23;3.70;;;1.10;;
45842;SDS011;31563;51.744;8.252;2023-07-13T06:23:51;3.55;;;1.13;;
45842;SDS011;31563;51.744;8.252;2023-07-13T06:26:20;5.18;;;1.00;;
45842;SDS011;31563;51.744;8.252;2023-07-13T06:28:49;4.65;;;1.30;;
45842;SDS011;31563;51.744;8.252;2023-07-13T06:31:18;7.90;;;1.27;;
45842;SDS011;31563;51.744;8.252;2023-07-13T06:33:46;4.95;;;1.60;;
45842;SDS011;31563;51.744;8.252;2023-07-13T06:36:15;5.70;;;1.33;;
45842;SDS011;31563;51.744;8.252;2023-07-13T06:38:43;7.00;;;1.60;;
45842;SDS011;31563;51.744;8.252;2023-07-13T06:41:11;4.82;;;1.40;;
45842;SDS011;31563;51.744;8.252;2023-07-13T06:43:40;4.87;;;1.47;;
45842;SDS011;31563;51.744;8.252;2023-07-13T06:46:08;5.68;;;1.63;;
45842;SDS011;31563;51.744;8.252;2023-07-13T06:48:39;6.72;;;1.65;;
45842;SDS011;31563;51.744;8.252;2023-07-13T06:53:36;6.80;;;1.70;;
45842;SDS011;31563;51.744;8.252;2023-07-13T06:56:04;7.25;;;1.52;;
45842;SDS011;31563;51.744;8.252;2023-07-13T06:58:33;4.35;;;1.30;;
45842;SDS011;31563;51.744;8.252;2023-07-13T07:01:02;5.30;;;1.35;;
45842;SDS011;31563;51.744;8.252;2023-07-13T07:03:33;6.05;;;1.50;;
45842;SDS011;31563;51.744;8.252;2023-07-13T07:06:03;6.47;;;1.60;;
45842;SDS011;31563;51.744;8.252;2023-07-13T07:08:39;3.35;;;1.20;;
45842;SDS011;31563;51.744;8.252;2023-07-13T07:11:08;4.85;;;1.38;;
45842;SDS011;31563;51.744;8.252;2023-07-13T07:13:39;6.30;;;1.05;;
45842;SDS011;31563;51.744;8.252;2023-07-13T07:16:07;2.85;;;1.02;;
45842;SDS011;31563;51.744;8.252;2023-07-13T07:18:36;4.40;;;1.25;;
45842;SDS011;31563;51.744;8.252;2023-07-13T07:21:06;5.15;;;1.10;;
45842;SDS011;31563;51.744;8.252;2023-07-13T07:23:34;4.82;;;1.20;;
45842;SDS011;31563;51.744;8.252;2023-07-13T07:26:03;4.43;;;1.10;;
45842;SDS011;31563;51.744;8.252;2023-07-13T07:28:31;2.85;;;0.98;;
45842;SDS011;31563;51.744;8.252;2023-07-13T07:31:02;4.05;;;1.25;;
45842;SDS011;31563;51.744;8.252;2023-07-13T07:33:33;3.22;;;0.93;;
45842;SDS011;31563;51.744;8.252;2023-07-13T07:36:01;3.25;;;0.98;;
45842;SDS011;31563;51.744;8.252;2023-07-13T07:38:35;4.40;;;1.10;;
45842;SDS011;31563;51.744;8.252;2023-07-13T07:41:03;3.78;;;1.10;;
45842;SDS011;31563;51.744;8.252;2023-07-13T07:43:35;2.97;;;0.93;;
45842;SDS011;31563;51.744;8.252;2023-07-13T07:46:04;3.33;;;1.05;;
45842;SDS011;31563;51.744;8.252;2023-07-13T07:48:32;4.32;;;1.38;;
45842;SDS011;31563;51.744;8.252;2023-07-13T07:51:01;1.52;;;0.65;;
45842;SDS011;31563;51.744;8.252;2023-07-13T07:53:29;3.70;;;0.90;;
45842;SDS011;31563;51.744;8.252;2023-07-13T07:56:01;3.78;;;0.90;;
45842;SDS011;31563;51.744;8.252;2023-07-13T08:01:20;2.75;;;0.68;;
45842;SDS011;31563;51.744;8.252;2023-07-13T08:03:51;3.30;;;0.90;;
45842;SDS011;31563;51.744;8.252;2023-07-13T08:06:23;2.50;;;1.00;;
45842;SDS011;31563;51.744;8.252;2023-07-13T08:09:10;4.20;;;0.90;;
45842;SDS011;31563;51.744;8.252;2023-07-13T08:11:39;3.42;;;0.90;;
45842;SDS011;31563;51.744;8.252;2023-07-13T08:14:10;4.82;;;0.73;;
45842;SDS011;31563;51.744;8.252;2023-07-13T08:16:39;3.72;;;1.17;;
45842;SDS011;31563;51.744;8.252;2023-07-13T08:19:07;2.13;;;0.80;;
45842;SDS011;31563;51.744;8.252;2023-07-13T08:21:35;2.63;;;0.90;;
45842;SDS011;31563;51.744;8.252;2023-07-13T08:24:04;2.15;;;0.77;;
45842;SDS011;31563;51.744;8.252;2023-07-13T08:26:32;2.63;;;0.90;;
45842;SDS011;31563;51.744;8.252;2023-07-13T08:29:02;3.35;;;0.90;;
45842;SDS011;31563;51.744;8.252;2023-07-13T08:31:30;1.95;;;0.80;;
45842;SDS011;31563;51.744;8.252;2023-07-13T08:33:59;2.85;;;1.00;;
45842;SDS011;31563;51.744;8.252;2023-07-13T08:36:27;3.00;;;0.70;;
45842;SDS011;31563;51.744;8.252;2023-07-13T08:38:56;2.47;;;0.80;;
45842;SDS011;31563;51.744;8.252;2023-07-13T08:41:24;1.85;;;0.60;;
45842;SDS011;31563;51.744;8.252;2023-07-13T08:43:55;2.10;;;0.70;;
45842;SDS011;31563;51.744;8.252;2023-07-13T08:46:28;1.80;;;0.77;;
45842;SDS011;31563;51.744;8.252;2023-07-13T08:49:02;2.75;;;1.10;;
45842;SDS011;31563;51.744;8.252;2023-07-13T08:51:35;4.53;;;1.05;;
45842;SDS011;31563;51.744;8.252;2023-07-13T08:54:12;4.20;;;1.20;;
45842;SDS011;31563;51.744;8.252;2023-07-13T08:56:46;6.20;;;1.35;;
45842;SDS011;31563;51.744;8.252;2023-07-13T08:59:20;4.47;;;1.40;;
45842;SDS011;31563;51.744;8.252;2023-07-13T09:01:57;5.40;;;1.10;;
45842;SDS011;31563;51.744;8.252;2023-07-13T09:04:49;3.40;;;0.98;;
45842;SDS011;31563;51.744;8.252;2023-07-13T09:07:24;6.50;;;1.20;;
45842;SDS011;31563;51.744;8.252;2023-07-13T09:10:03;4.30;;;1.63;;
45842;SDS011;31563;51.744;8.252;2023-07-13T09:12:40;3.65;;;1.20;;
45842;SDS011;31563;51.744;8.252;2023-07-13T09:15:24;5.60;;;1.20;;
45842;SDS011;31563;51.744;8.252;2023-07-13T09:17:59;3.65;;;1.00;;
45842;SDS011;31563;51.744;8.252;2023-07-13T09:20:32;4.88;;;1.48;;
45842;SDS011;31563;51.744;8.252;2023-07-13T09:23:04;7.43;;;1.48;;
45842;SDS011;31563;51.744;8.252;2023-07-13T09:25:36;4.82;;;1.55;;
45842;SDS011;31563;51.744;8.252;2023-07-13T09:28:08;3.65;;;1.00;;
45842;SDS011;31563;51.744;8.252;2023-07-13T09:30:46;6.70;;;1.40;;
45842;SDS011;31563;51.744;8.252;2023-07-13T09:33:21;3.90;;;1.52;;
45842;SDS011;31563;51.744;8.252;2023-07-13T09:35:49;6.20;;;1.67;;
45842;SDS011;31563;51.744;8.252;2023-07-13T09:38:18;5.78;;;1.60;;
45842;SDS011;31563;51.744;8.252;2023-07-13T09:41:03;12.10;;;1.95;;
45842;SDS011;31563;51.744;8.252;2023-07-13T09:46:28;9.32;;;1.50;;
45842;SDS011;31563;51.744;8.252;2023-07-13T09:48:57;3.67;;;0.98;;
45842;SDS011;31563;51.744;8.252;2023-07-13T09:51:26;3.75;;;1.50;;
45842;SDS011;31563;51.744;8.252;2023-07-13T09:53:54;5.28;;;1.65;;
45842;SDS011;31563;51.744;8.252;2023-07-13T09:56:24;4.93;;;1.52;;
45842;SDS011;31563;51.744;8.252;2023-07-13T09:58:55;4.22;;;1.30;;
45842;SDS011;31563;51.744;8.252;2023-07-13T10:01:31;5.07;;;1.20;;
45842;SDS011;31563;51.744;8.252;2023-07-13T10:04:03;5.30;;;1.15;;
45842;SDS011;31563;51.744;8.252;2023-07-13T10:06:39;4.13;;;1.27;;
45842;SDS011;31563;51.744;8.252;2023-07-13T10:09:09;4.05;;;0.90;;
45842;SDS011;31563;51.744;8.252;2023-07-13T10:11:41;5.43;;;1.00;;
45842;SDS011;31563;51.744;8.252;2023-07-13T10:14:11;4.45;;;0.90;;
45842;SDS011;31563;51.744;8.252;2023-07-13T10:16:42;3.05;;;1.20;;
45842;SDS011;31563;51.744;8.252;2023-07-13T10:19:14;4.70;;;1.33;;
45842;SDS011;31563;51.744;8.252;2023-07-13T10:21:49;3.67;;;1.20;;
45842;SDS011;31563;51.744;8.252;2023-07-13T10:24:22;7.28;;;1.35;;
45842;SDS011;31563;51.744;8.252;2023-07-13T10:26:53;4.35;;;1.20;;
45842;SDS011;31563;51.744;8.252;2023-07-13T10:29:25;5.90;;;1.63;;
45842;SDS011;31563;51.744;8.252;2023-07-13T10:31:56;4.68;;;1.10;;
45842;SDS011;31563;51.744;8.252;2023-07-13T10:34:26;3.67;;;1.10;;
45842;SDS011;31563;51.744;8.252;2023-07-13T10:36:54;5.57;;;1.45;;
45842;SDS011;31563;51.744;8.252;2023-07-13T10:39:24;2.15;;;0.90;;
45842;SDS011;31563;51.744;8.252;2023-07-13T10:41:59;4.28;;;1.05;;
45842;SDS011;31563;51.744;8.252;2023-07-13T10:44:32;3.92;;;0.98;;
45842;SDS011;31563;51.744;8.252;2023-07-13T10:47:02;3.17;;;1.30;;
45842;SDS011;31563;51.744;8.252;2023-07-13T10:49:36;4.10;;;1.17;;
45842;SDS011;31563;51.744;8.252;2023-07-13T10:52:05;3.72;;;1.10;;
45842;SDS011;31563;51.744;8.252;2023-07-13T10:54:34;2.38;;;0.98;;
45842;SDS011;31563;51.744;8.252;2023-07-13T10:59:46;3.10;;;0.95;;
45842;SDS011;31563;51.744;8.252;2023-07-13T11:02:21;2.97;;;0.90;;
45842;SDS011;31563;51.744;8.252;2023-07-13T11:04:55;3.33;;;1.15;;
45842;SDS011;31563;51.744;8.252;2023-07-13T11:07:26;3.47;;;0.77;;
45842;SDS011;31563;51.744;8.252;2023-07-13T11:09:56;3.25;;;0.98;;
45842;SDS011;31563;51.744;8.252;2023-07-13T11:12:27;4.93;;;1.33;;
45842;SDS011;31563;51.744;8.252;2023-07-13T11:15:11;4.57;;;0.93;;
45842;SDS011;31563;51.744;8.252;2023-07-13T11:17:47;4.00;;;1.17;;
45842;SDS011;31563;51.744;8.252;2023-07-13T11:20:23;2.45;;;0.90;;
45842;SDS011;31563;51.744;8.252;2023-07-13T11:25:57;4.63;;;1.30;;
45842;SDS011;31563;51.744;8.252;2023-07-13T11:28:29;2.53;;;0.80;;
45842;SDS011;31563;51.744;8.252;2023-07-13T11:33:53;2.42;;;1.00;;
45842;SDS011;31563;51.744;8.252;2023-07-13T11:36:30;2.38;;;0.85;;
45842;SDS011;31563;51.744;8.252;2023-07-13T11:39:04;2.03;;;0.90;;
45842;SDS011;31563;51.744;8.252;2023-07-13T11:41:43;4.03;;;0.80;;
45842;SDS011;31563;51.744;8.252;2023-07-13T11:44:14;2.17;;;0.60;;
45842;SDS011;31563;51.744;8.252;2023-07-13T11:46:45;2.95;;;0.82;;
45842;SDS011;31563;51.744;8.252;2023-07-13T11:49:18;2.05;;;0.63;;
45842;SDS011;31563;51.744;8.252;2023-07-13T11:51:51;3.88;;;1.13;;
45842;SDS011;31563;51.744;8.252;2023-07-13T11:54:26;5.32;;;0.95;;
45842;SDS011;31563;51.744;8.252;2023-07-13T11:56:57;2.78;;;1.13;;
45842;SDS011;31563;51.744;8.252;2023-07-13T11:59:29;2.72;;;1.08;;
45842;SDS011;31563;51.744;8.252;2023-07-13T12:01:59;3.83;;;1.30;;
45842;SDS011;31563;51.744;8.252;2023-07-13T12:04:30;3.40;;;1.17;;
45842;SDS011;31563;51.744;8.252;2023-07-13T12:07:05;4.63;;;1.30;;
45842;SDS011;31563;51.744;8.252;2023-07-13T12:09:35;3.17;;;1.10;;
45842;SDS011;31563;51.744;8.252;2023-07-13T12:12:08;2.78;;;1.20;;
45842;SDS011;31563;51.744;8.252;2023-07-13T12:14:39;3.15;;;1.30;;
45842;SDS011;31563;51.744;8.252;2023-07-13T12:19:39;3.33;;;1.20;;
45842;SDS011;31563;51.744;8.252;2023-07-13T12:22:10;5.90;;;1.45;;
45842;SDS011;31563;51.744;8.252;2023-07-13T12:24:41;2.83;;;1.30;;
45842;SDS011;31563;51.744;8.252;2023-07-13T12:27:14;3.80;;;1.38;;
45842;SDS011;31563;51.744;8.252;2023-07-13T12:29:49;3.20;;;1.10;;
45842;SDS011;31563;51.744;8.252;2023-07-13T12:32:20;4.10;;;1.52;;
45842;SDS011;31563;51.744;8.252;2023-07-13T12:34:51;3.85;;;1.00;;
45842;SDS011;31563;51.744;8.252;2023-07-13T12:37:24;3.72;;;1.15;;
45842;SDS011;31563;51.744;8.252;2023-07-13T12:39:52;3.42;;;1.30;;
45842;SDS011;31563;51.744;8.252;2023-07-13T12:42:22;2.30;;;1.07;;
45842;SDS011;31563;51.744;8.252;2023-07-13T12:44:56;5.75;;;1.23;;
45842;SDS011;31563;51.744;8.252;2023-07-13T12:47:27;3.53;;;1.17;;
45842;SDS011;31563;51.744;8.252;2023-07-13T12:49:57;4.65;;;1.42;;
45842;SDS011;31563;51.744;8.252;2023-07-13T12:52:29;4.07;;;1.08;;
45842;SDS011;31563;51.744;8.252;2023-07-13T12:55:03;2.30;;;1.10;;
45842;SDS011;31563;51.744;8.252;2023-07-13T12:57:38;4.30;;;1.05;;
45842;SDS011;31563;51.744;8.252;2023-07-13T13:00:19;4.18;;;1.30;;
45842;SDS011;31563;51.744;8.252;2023-07-13T13:02:52;3.28;;;1.00;;
45842;SDS011;31563;51.744;8.252;2023-07-13T13:05:41;4.28;;;1.23;;
45842;SDS011;31563;51.744;8.252;2023-07-13T13:08:11;3.35;;;1.08;;
45842;SDS011;31563;51.744;8.252;2023-07-13T13:10:39;2.78;;;1.20;;
45842;SDS011;31563;51.744;8.252;2023-07-13T13:13:08;4.63;;;1.30;;
45842;SDS011;31563;51.744;8.252;2023-07-13T13:15:36;2.60;;;1.07;;
45842;SDS011;31563;51.744;8.252;2023-07-13T13:18:08;5.22;;;1.00;;
45842;SDS011;31563;51.744;8.252;2023-07-13T13:20:44;12.93;;;1.92;;
45842;SDS011;31563;51.744;8.252;2023-07-13T13:23:15;3.97;;;1.15;;
45842;SDS011;31563;51.744;8.252;2023-07-13T13:25:45;5.63;;;1.50;;
45842;SDS011;31563;51.744;8.252;2023-07-13T13:28:16;5.38;;;1.35;;
45842;SDS011;31563;51.744;8.252;2023-07-13T13:30:47;2.22;;;0.93;;
45842;SDS011;31563;51.744;8.252;2023-07-13T13:33:19;3.67;;;1.00;;
45842;SDS011;31563;51.744;8.252;2023-07-13T13:35:48;3.78;;;1.40;;
45842;SDS011;31563;51.744;8.252;2023-07-13T13:38:19;3.77;;;0.80;;
45842;SDS011;31563;51.744;8.252;2023-07-13T13:40:51;3.85;;;1.38;;
45842;SDS011;31563;51.744;8.252;2023-07-13T13:43:22;3.67;;;0.93;;
45842;SDS011;31563;51.744;8.252;2023-07-13T13:45:53;6.45;;;1.35;;
45842;SDS011;31563;51.744;8.252;2023-07-13T13:48:25;5.35;;;1.40;;
45842;SDS011;31563;51.744;8.252;2023-07-13T13:50:58;3.60;;;1.13;;
45842;SDS011;31563;51.744;8.252;2023-07-13T13:53:28;4.13;;;0.93;;
45842;SDS011;31563;51.744;8.252;2023-07-13T13:55:56;6.30;;;1.35;;
45842;SDS011;31563;51.744;8.252;2023-07-13T13:58:26;1.80;;;1.02;;
45842;SDS011;31563;51.744;8.252;2023-07-13T14:00:54;7.28;;;1.27;;
45842;SDS011;31563;51.744;8.252;2023-07-13T14:03:22;4.35;;;1.05;;
45842;SDS011;31563;51.744;8.252;2023-07-13T14:05:51;2.80;;;1.02;;
45842;SDS011;31563;51.744;8.252;2023-07-13T14:08:20;4.10;;;1.00;;
45842;SDS011;31563;51.744;8.252;2023-07-13T14:10:50;4.82;;;2.38;;
45842;SDS011;31563;51.744;8.252;2023-07-13T14:13:22;6.22;;;2.20;;
45842;SDS011;31563;51.744;8.252;2023-07-13T14:15:54;4.32;;;1.30;;
45842;SDS011;31563;51.744;8.252;2023-07-13T14:18:22;2.97;;;1.00;;
45842;SDS011;31563;51.744;8.252;2023-07-13T14:20:50;3.63;;;1.40;;
45842;SDS011;31563;51.744;8.252;2023-07-13T14:25:47;5.75;;;1.60;;
45842;SDS011;31563;51.744;8.252;2023-07-13T14:28:21;4.65;;;1.23;;
45842;SDS011;31563;51.744;8.252;2023-07-13T14:30:52;4.22;;;1.38;;
45842;SDS011;31563;51.744;8.252;2023-07-13T14:33:21;3.80;;;1.02;;
45842;SDS011;31563;51.744;8.252;2023-07-13T14:35:49;9.10;;;1.25;;
45842;SDS011;31563;51.744;8.252;2023-07-13T14:38:33;4.55;;;1.23;;
45842;SDS011;31563;51.744;8.252;2023-07-13T14:41:01;7.05;;;1.67;;
45842;SDS011;31563;51.744;8.252;2023-07-13T14:43:32;5.03;;;1.15;;
45842;SDS011;31563;51.744;8.252;2023-07-13T14:46:00;7.47;;;1.70;;
45842;SDS011;31563;51.744;8.252;2023-07-13T14:48:30;3.78;;;1.45;;
45842;SDS011;31563;51.744;8.252;2023-07-13T14:50:59;4.57;;;1.55;;
45842;SDS011;31563;51.744;8.252;2023-07-13T14:53:27;5.85;;;1.65;;
45842;SDS011;31563;51.744;8.252;2023-07-13T14:55:55;3.47;;;1.58;;
45842;SDS011;31563;51.744;8.252;2023-07-13T14:58:23;4.47;;;1.38;;
45842;SDS011;31563;51.744;8.252;2023-07-13T15:00:53;3.60;;;1.27;;
45842;SDS011;31563;51.744;8.252;2023-07-13T15:03:24;1.73;;;1.00;;
45842;SDS011;31563;51.744;8.252;2023-07-13T15:05:53;3.20;;;1.35;;
45842;SDS011;31563;51.744;8.252;2023-07-13T15:08:21;2.97;;;1.05;;
45842;SDS011;31563;51.744;8.252;2023-07-13T15:10:50;2.92;;;1.23;;
45842;SDS011;31563;51.744;8.252;2023-07-13T15:13:19;3.22;;;1.52;;
45842;SDS011;31563;51.744;8.252;2023-07-13T15:15:50;2.28;;;0.98;;
45842;SDS011;31563;51.744;8.252;2023-07-13T15:18:21;3.30;;;1.50;;
45842;SDS011;31563;51.744;8.252;2023-07-13T15:20:53;2.78;;;1.25;;
45842;SDS011;31563;51.744;8.252;2023-07-13T15:23:24;2.78;;;1.20;;
45842;SDS011;31563;51.744;8.252;2023-07-13T15:25:52;2.13;;;1.10;;
45842;SDS011;31563;51.744;8.252;2023-07-13T15:28:21;2.53;;;1.00;;
45842;SDS011;31563;51.744;8.252;2023-07-13T15:30:50;2.17;;;0.80;;
45842;SDS011;31563;51.744;8.252;2023-07-13T15:33:21;3.28;;;1.15;;
45842;SDS011;31563;51.744;8.252;2023-07-13T15:35:51;6.10;;;2.40;;
45842;SDS011;31563;51.744;8.252;2023-07-13T15:38:21;6.38;;;1.80;;
45842;SDS011;31563;51.744;8.252;2023-07-13T15:40:52;3.90;;;1.35;;